createdAt,value
2022-09-16T00:01:34.745Z,16.73
2022-09-16T00:06:36.272Z,16.73
2022-09-16T00:11:37.840Z,16.71
2022-09-16T00:16:39.348Z,16.66
2022-09-16T00:21:40.919Z,16.64
2022-09-16T00:26:43.188Z,16.63
2022-09-16T00:31:44.725Z,16.64
2022-09-16T00:36:46.228Z,16.63
2022-09-16T00:41:47.708Z,16.64
2022-09-16T00:46:49.674Z,16.65
2022-09-16T00:51:54.401Z,16.66
2022-09-16T00:56:59.233Z,16.63
2022-09-16T01:02:06.722Z,16.65
2022-09-16T01:07:08.411Z,16.65
2022-09-16T01:12:09.903Z,16.65
2022-09-16T01:17:14.237Z,16.69
2022-09-16T01:22:43.850Z,16.69
2022-09-16T01:28:22.037Z,16.72
2022-09-16T01:33:45.564Z,16.76
2022-09-16T01:38:56.052Z,16.79
2022-09-16T01:44:01.179Z,16.80
2022-09-16T01:49:16.050Z,16.79
2022-09-16T01:54:34.272Z,16.76
2022-09-16T01:59:53.208Z,16.69
2022-09-16T02:04:57.502Z,16.70
2022-09-16T02:10:06.695Z,16.68
2022-09-16T02:15:11.427Z,16.68
2022-09-16T02:20:17.526Z,16.72
2022-09-16T02:25:19.934Z,16.73
2022-09-16T02:30:23.179Z,16.75
2022-09-16T02:35:28.041Z,16.77
2022-09-16T02:40:35.089Z,16.75
2022-09-16T02:45:39.846Z,16.74
2022-09-16T02:51:09.683Z,16.74
2022-09-16T02:56:24.581Z,16.72
2022-09-16T03:01:27.875Z,16.70
2022-09-16T03:06:30.066Z,16.69
2022-09-16T03:11:31.534Z,16.69
2022-09-16T03:16:41.594Z,16.69
2022-09-16T03:22:13.087Z,16.66
2022-09-16T03:27:23.146Z,16.64
2022-09-16T03:32:30.809Z,16.64
2022-09-16T03:37:35.424Z,16.61
2022-09-16T03:42:40.136Z,16.61
2022-09-16T03:47:43.110Z,16.60
2022-09-16T03:52:44.607Z,16.59
2022-09-16T03:57:46.077Z,16.57
2022-09-16T04:02:47.615Z,16.55
2022-09-16T04:07:50.041Z,16.52
2022-09-16T04:12:51.502Z,16.47
2022-09-16T04:17:53.009Z,16.46
2022-09-16T04:22:54.543Z,16.41
2022-09-16T04:27:55.999Z,16.39
2022-09-16T04:32:57.603Z,16.35
2022-09-16T04:37:59.068Z,16.33
2022-09-16T04:43:00.525Z,16.35
2022-09-16T04:48:02.135Z,16.36
2022-09-16T04:53:03.624Z,16.37
2022-09-16T04:58:05.094Z,16.34
2022-09-16T05:03:07.552Z,16.31
2022-09-16T05:08:09.077Z,16.26
2022-09-16T05:13:10.552Z,16.22
2022-09-16T05:18:12.032Z,16.22
2022-09-16T05:23:13.550Z,16.21
2022-09-16T05:28:15.042Z,16.19
2022-09-16T05:33:16.591Z,16.17
2022-09-16T05:38:18.042Z,16.20
2022-09-16T05:43:19.507Z,16.22
2022-09-16T05:48:22.471Z,16.21
2022-09-16T05:53:25.541Z,16.24
2022-09-16T05:58:28.454Z,16.24
2022-09-16T06:03:30.027Z,16.19
2022-09-16T06:08:34.170Z,16.19
2022-09-16T06:13:35.740Z,16.22
2022-09-16T06:18:38.059Z,16.23
2022-09-16T06:23:40.351Z,16.24
2022-09-16T06:28:42.352Z,16.27
2022-09-16T06:33:44.637Z,16.25
2022-09-16T06:38:46.930Z,16.27
2022-09-16T06:43:51.155Z,16.33
2022-09-16T06:49:04.304Z,16.39
2022-09-16T06:54:08.303Z,16.42
2022-09-16T06:59:11.117Z,16.47
2022-09-16T07:04:15.715Z,16.50
2022-09-16T07:09:18.050Z,16.47
2022-09-16T07:14:19.511Z,16.50
2022-09-16T07:19:21.329Z,16.51
2022-09-16T07:24:22.843Z,16.49
2022-09-16T07:29:24.639Z,16.51
2022-09-16T07:34:26.120Z,16.46
2022-09-16T07:39:27.763Z,16.40
2022-09-16T07:44:29.521Z,16.32
2022-09-16T07:49:31.104Z,16.30
2022-09-16T07:54:32.689Z,16.30
2022-09-16T07:59:34.163Z,16.28
2022-09-16T08:04:35.636Z,16.31
2022-09-16T08:09:48.577Z,16.31
2022-09-16T08:14:52.173Z,16.28
2022-09-16T08:19:53.673Z,16.27
2022-09-16T08:24:55.168Z,16.33
2022-09-16T08:29:56.646Z,16.38
2022-09-16T08:34:58.524Z,16.41
2022-09-16T08:40:00.167Z,16.46
2022-09-16T08:45:31.259Z,16.53
2022-09-16T08:50:37.609Z,16.53
2022-09-16T08:55:42.565Z,16.50
2022-09-16T09:00:47.341Z,16.56
2022-09-16T09:05:54.930Z,16.61
2022-09-16T09:11:23.861Z,16.63
2022-09-16T09:16:46.462Z,16.66
2022-09-16T09:21:51.981Z,16.67
2022-09-16T09:27:14.392Z,16.68
2022-09-16T09:32:49.852Z,16.71
2022-09-16T09:38:22.545Z,16.74
2022-09-16T09:43:33.047Z,16.79
2022-09-16T09:49:00.796Z,16.81
2022-09-16T09:54:12.872Z,16.81
2022-09-16T09:59:23.387Z,16.80
2022-09-16T10:04:25.083Z,16.76
2022-09-16T10:09:26.773Z,16.77
2022-09-16T10:14:33.750Z,16.75
2022-09-16T10:19:48.722Z,16.73
2022-09-16T10:25:02.137Z,16.68
2022-09-16T10:30:03.574Z,16.69
2022-09-16T10:35:09.043Z,16.67
2022-09-16T10:40:17.364Z,16.67
2022-09-16T10:45:25.879Z,16.70
2022-09-16T10:50:28.192Z,16.71
2022-09-16T10:55:37.773Z,16.69
2022-09-16T11:00:49.406Z,16.67
2022-09-16T11:06:02.880Z,16.65
2022-09-16T11:11:23.159Z,16.65
2022-09-16T11:16:43.466Z,16.60
2022-09-16T11:21:59.885Z,16.59
2022-09-16T11:27:26.409Z,16.61
2022-09-16T11:32:35.911Z,16.67
2022-09-16T11:38:02.523Z,16.71
2022-09-16T11:43:26.354Z,16.67
2022-09-16T11:48:41.298Z,16.64
2022-09-16T11:53:57.264Z,16.62
2022-09-16T11:59:05.261Z,16.61
2022-09-16T12:04:32.754Z,16.65
2022-09-16T12:09:55.555Z,16.69
2022-09-16T12:15:05.461Z,16.82
2022-09-16T12:20:19.266Z,16.82
2022-09-16T12:25:38.126Z,16.85
2022-09-16T12:30:44.622Z,16.85
2022-09-16T12:36:07.128Z,16.84
2022-09-16T12:41:32.529Z,16.86
2022-09-16T12:46:55.579Z,16.88
2022-09-16T12:52:00.888Z,16.90
2022-09-16T12:57:29.750Z,16.95
2022-09-16T13:02:47.849Z,16.97
2022-09-16T13:07:53.638Z,17.00
2022-09-16T13:12:59.123Z,17.00
2022-09-16T13:18:16.520Z,16.97
2022-09-16T13:23:24.808Z,16.87
2022-09-16T13:28:32.184Z,16.87
2022-09-16T13:33:33.793Z,16.84
2022-09-16T13:38:38.718Z,16.87
2022-09-16T13:43:42.997Z,16.87
2022-09-16T13:49:02.668Z,16.83
2022-09-16T13:54:04.635Z,16.78
2022-09-16T13:59:40.406Z,16.74
2022-09-16T14:05:15.908Z,16.65
2022-09-16T14:10:42.195Z,16.59
2022-09-16T14:15:51.339Z,16.59
2022-09-16T14:21:17.781Z,16.72
2022-09-16T14:26:21.710Z,16.77
2022-09-16T14:31:29.520Z,16.83
2022-09-16T14:36:36.180Z,16.87
2022-09-16T14:41:43.220Z,16.87
2022-09-16T14:47:09.256Z,16.94
2022-09-16T14:52:20.398Z,17.04
2022-09-16T14:57:24.742Z,17.14
2022-09-16T15:02:36.049Z,17.15
2022-09-16T15:07:56.193Z,17.24
2022-09-16T15:13:04.788Z,17.36
2022-09-16T15:18:12.449Z,17.44
2022-09-16T15:23:23.742Z,17.44
2022-09-16T15:28:25.782Z,17.41
2022-09-16T15:33:34.307Z,17.33
2022-09-16T15:38:35.970Z,17.32
2022-09-16T15:43:44.439Z,17.32
2022-09-16T15:48:48.694Z,17.36
2022-09-16T15:53:52.116Z,17.40
2022-09-16T15:59:01.670Z,17.47
2022-09-16T16:04:06.482Z,17.53
2022-09-16T16:09:27.881Z,17.54
2022-09-16T16:14:33.964Z,17.52
2022-09-16T16:19:35.945Z,17.58
2022-09-16T16:24:37.571Z,17.68
2022-09-16T16:29:39.379Z,17.76
2022-09-16T16:34:47.280Z,17.64
2022-09-16T16:39:48.835Z,17.55
2022-09-16T16:44:51.120Z,17.46
2022-09-16T16:49:52.628Z,17.41
2022-09-16T16:54:54.147Z,17.37
2022-09-16T16:59:55.680Z,17.29
2022-09-16T17:04:57.244Z,17.21
2022-09-16T17:09:58.714Z,17.17
2022-09-16T17:15:00.201Z,17.08
2022-09-16T17:20:01.883Z,16.81
2022-09-16T17:25:03.503Z,16.67
2022-09-16T17:30:05.530Z,16.60
2022-09-16T17:35:07.334Z,16.58
2022-09-16T17:40:09.527Z,16.56
2022-09-16T17:45:11.274Z,16.52
2022-09-16T17:50:14.031Z,16.49
2022-09-16T17:55:15.785Z,16.44
2022-09-16T18:00:18.076Z,16.40
2022-09-16T18:05:19.656Z,16.32
2022-09-16T18:10:23.338Z,16.21
2022-09-16T18:15:25.450Z,16.15
2022-09-16T18:20:27.062Z,16.07
2022-09-16T18:25:29.000Z,16.03
2022-09-16T18:30:30.601Z,15.99
2022-09-16T18:35:37.034Z,15.95
2022-09-16T18:40:39.687Z,15.92
2022-09-16T18:45:41.334Z,15.88
2022-09-16T18:50:43.093Z,15.85
2022-09-16T18:55:44.621Z,15.81
2022-09-16T19:00:49.039Z,15.78
2022-09-16T19:05:56.957Z,15.73
2022-09-16T19:11:02.626Z,15.69
2022-09-16T19:16:04.269Z,15.66
2022-09-16T19:21:06.200Z,15.60
2022-09-16T19:26:07.819Z,15.53
2022-09-16T19:31:12.877Z,15.48
2022-09-16T19:36:19.245Z,15.42
2022-09-16T19:41:23.892Z,15.37
2022-09-16T19:46:26.734Z,15.33
2022-09-16T19:51:29.068Z,15.30
2022-09-16T19:56:32.891Z,15.27
2022-09-16T20:01:36.224Z,15.23
2022-09-16T20:06:42.339Z,15.15
2022-09-16T20:11:46.055Z,15.10
2022-09-16T20:16:49.194Z,15.06
2022-09-16T20:21:50.752Z,15.01
2022-09-16T20:26:54.771Z,14.98
2022-09-16T20:31:56.359Z,14.97
2022-09-16T20:36:57.937Z,14.95
2022-09-16T20:41:59.569Z,14.92
2022-09-16T20:47:02.044Z,14.89
2022-09-16T20:52:03.562Z,14.85
2022-09-16T20:57:05.358Z,14.81
2022-09-16T21:02:08.956Z,14.74
2022-09-16T21:07:12.191Z,14.72
2022-09-16T21:12:16.318Z,14.68
2022-09-16T21:17:19.870Z,14.64
2022-09-16T21:22:22.514Z,14.62
2022-09-16T21:27:24.111Z,14.56
2022-09-16T21:32:25.933Z,14.51
2022-09-16T21:37:27.740Z,14.48
2022-09-16T21:42:29.439Z,14.44
2022-09-16T21:47:32.186Z,14.42
2022-09-16T21:52:33.901Z,14.38
2022-09-16T21:57:35.425Z,14.36
2022-09-16T22:02:37.007Z,14.34
2022-09-16T22:07:39.636Z,14.31
2022-09-16T22:12:41.201Z,14.28
2022-09-16T22:17:43.503Z,14.26
2022-09-16T22:22:45.021Z,14.23
2022-09-16T22:27:46.524Z,14.20
2022-09-16T22:32:48.151Z,14.17
2022-09-16T22:37:49.829Z,14.14
2022-09-16T22:42:51.362Z,14.09
2022-09-16T22:47:52.883Z,14.06
2022-09-16T22:52:54.402Z,14.04
2022-09-16T22:57:55.992Z,14.00
2022-09-16T23:02:57.473Z,13.99
2022-09-16T23:07:58.963Z,13.98
2022-09-16T23:13:00.868Z,13.94
2022-09-16T23:18:02.377Z,13.90
2022-09-16T23:23:04.423Z,13.87
2022-09-16T23:28:05.935Z,13.83
2022-09-16T23:33:07.463Z,13.81
2022-09-16T23:38:08.954Z,13.80
2022-09-16T23:43:10.491Z,13.80
2022-09-16T23:48:13.323Z,13.69
2022-09-16T23:53:14.813Z,13.64
2022-09-16T23:58:16.587Z,13.63
